RYR47RK EGGP-LERS
Flight info
| Callsign | RYR47RK |
|---|---|
| Flight time | 1h 57m |
| Altitude | 39000 |
| Route | NANTI L8 STAFA P18 TELBA L151 KIDLI UN859 SOPIL DCT BALAN DCT EVPOK DCT NARAK DCT GAI DCT LOMRA DCT ROCAN DCT PUMAL N31 BERGA |
| Aircraft | B38M/M-SDE1FGHILORVWXY/HB1 |
Departure
| Time | 2026-05-05 14:08 |
|---|---|
| Airport | Liverpool John Lennon Airport (EGGP) |
Arrival
| Time | 2026-05-05 16:06 |
|---|---|
| Airport | Reus Airport (LERS) |
| Time | Latitude | Longitude | Altitude | Speed | Heading |
|---|---|---|---|---|---|
| 2026-05-05 13:36 | 53.33647 | -2.85794 | 91 ft | 0 kts | 355° |
| 2026-05-05 13:59 | 53.33635 | -2.85793 | 94 ft | 3 kts | 355° |
| 2026-05-05 14:00 | 53.33603 | -2.85801 | 91 ft | 3 kts | 58° |
| 2026-05-05 14:00 | 53.33598 | -2.85819 | 93 ft | 2 kts | 81° |
| 2026-05-05 14:00 | 53.33597 | -2.85847 | 91 ft | 2 kts | 85° |
| 2026-05-05 14:00 | 53.33596 | -2.85858 | 93 ft | 0 kts | 85° |
| 2026-05-05 14:03 | 53.33597 | -2.85830 | 91 ft | 7 kts | 85° |
| 2026-05-05 14:03 | 53.33604 | -2.85690 | 91 ft | 15 kts | 85° |
| 2026-05-05 14:03 | 53.33609 | -2.85529 | 95 ft | 4 kts | 112° |
| 2026-05-05 14:04 | 53.33586 | -2.85515 | 93 ft | 6 kts | 169° |
| 2026-05-05 14:04 | 53.33520 | -2.85498 | 91 ft | 10 kts | 152° |
| 2026-05-05 14:04 | 53.33510 | -2.85401 | 93 ft | 11 kts | 85° |
| 2026-05-05 14:04 | 53.33519 | -2.85224 | 93 ft | 20 kts | 85° |
| 2026-05-05 14:05 | 53.33532 | -2.84946 | 92 ft | 28 kts | 85° |
| 2026-05-05 14:05 | 53.33548 | -2.84597 | 92 ft | 31 kts | 85° |
| 2026-05-05 14:05 | 53.33565 | -2.84244 | 92 ft | 30 kts | 86° |
| 2026-05-05 14:05 | 53.33581 | -2.83881 | 92 ft | 32 kts | 85° |
| 2026-05-05 14:06 | 53.33597 | -2.83563 | 94 ft | 26 kts | 85° |
| 2026-05-05 14:06 | 53.33578 | -2.83334 | 94 ft | 16 kts | 133° |
| 2026-05-05 14:06 | 53.33509 | -2.83298 | 92 ft | 6 kts | 175° |
| 2026-05-05 14:06 | 53.33470 | -2.83292 | 92 ft | 7 kts | 175° |
| 2026-05-05 14:07 | 53.33440 | -2.83319 | 93 ft | 4 kts | 244° |
| 2026-05-05 14:07 | 53.33439 | -2.83329 | 93 ft | 0 kts | 266° |
| 2026-05-05 14:07 | 53.33436 | -2.83407 | 96 ft | 29 kts | 265° |
| 2026-05-05 14:08 | 53.33397 | -2.84261 | 91 ft | 115 kts | 266° |
| 2026-05-05 14:08 | 53.33316 | -2.85913 | 384 ft | 154 kts | 270° |
| 2026-05-05 14:08 | 53.33245 | -2.87709 | 1455 ft | 154 kts | 269° |
| 2026-05-05 14:08 | 53.33137 | -2.89525 | 2224 ft | 169 kts | 270° |
| 2026-05-05 14:09 | 53.32941 | -2.91633 | 2752 ft | 199 kts | 257° |
| 2026-05-05 14:09 | 53.32093 | -2.93680 | 3287 ft | 233 kts | 217° |
| 2026-05-05 14:09 | 53.30553 | -2.94811 | 4031 ft | 254 kts | 188° |
| 2026-05-05 14:09 | 53.28766 | -2.94403 | 4788 ft | 271 kts | 153° |
| 2026-05-05 14:10 | 53.27205 | -2.92646 | 5850 ft | 271 kts | 145° |
| 2026-05-05 14:10 | 53.25570 | -2.90977 | 6875 ft | 278 kts | 148° |
| 2026-05-05 14:10 | 53.23901 | -2.89305 | 7883 ft | 282 kts | 149° |
| 2026-05-05 14:10 | 53.22199 | -2.87593 | 8848 ft | 289 kts | 149° |
| 2026-05-05 14:11 | 53.20483 | -2.85861 | 9823 ft | 295 kts | 150° |
| 2026-05-05 14:11 | 53.18704 | -2.84065 | 10597 ft | 306 kts | 150° |
| 2026-05-05 14:11 | 53.16822 | -2.82180 | 11119 ft | 325 kts | 150° |
| 2026-05-05 14:11 | 53.14839 | -2.80199 | 11752 ft | 338 kts | 150° |
| 2026-05-05 14:12 | 53.12803 | -2.78158 | 12557 ft | 344 kts | 150° |
| 2026-05-05 14:12 | 53.10739 | -2.76078 | 13495 ft | 348 kts | 150° |
| 2026-05-05 14:12 | 53.08653 | -2.73974 | 14328 ft | 353 kts | 150° |
| 2026-05-05 14:12 | 53.06542 | -2.71849 | 15141 ft | 356 kts | 150° |
| 2026-05-05 14:13 | 53.04413 | -2.69704 | 15981 ft | 360 kts | 150° |
| 2026-05-05 14:13 | 53.02261 | -2.67539 | 16763 ft | 364 kts | 151° |
| 2026-05-05 14:13 | 53.00085 | -2.65353 | 17555 ft | 368 kts | 151° |
| 2026-05-05 14:13 | 52.97880 | -2.63140 | 18321 ft | 371 kts | 151° |
| 2026-05-05 14:14 | 52.95688 | -2.60943 | 18968 ft | 375 kts | 151° |
| 2026-05-05 14:14 | 52.93443 | -2.58695 | 19656 ft | 377 kts | 151° |
| 2026-05-05 14:14 | 52.91183 | -2.56436 | 20318 ft | 380 kts | 152° |
| 2026-05-05 14:14 | 52.88909 | -2.54163 | 20991 ft | 383 kts | 152° |
| 2026-05-05 14:15 | 52.86613 | -2.51872 | 21638 ft | 386 kts | 152° |
| 2026-05-05 14:15 | 52.84301 | -2.49567 | 22275 ft | 390 kts | 152° |
| 2026-05-05 14:15 | 52.81969 | -2.47246 | 22915 ft | 393 kts | 152° |
| 2026-05-05 14:15 | 52.79616 | -2.44906 | 23523 ft | 396 kts | 152° |
| 2026-05-05 14:16 | 52.77253 | -2.42558 | 24043 ft | 399 kts | 152° |
| 2026-05-05 14:16 | 52.74866 | -2.40189 | 24579 ft | 402 kts | 151° |
| 2026-05-05 14:16 | 52.72455 | -2.37801 | 25076 ft | 405 kts | 151° |
| 2026-05-05 14:16 | 52.70032 | -2.35404 | 25571 ft | 407 kts | 151° |
| 2026-05-05 14:17 | 52.67616 | -2.33033 | 26036 ft | 410 kts | 153° |
| 2026-05-05 14:17 | 52.65102 | -2.30783 | 26527 ft | 412 kts | 153° |
| 2026-05-05 14:17 | 52.62571 | -2.28516 | 27002 ft | 415 kts | 153° |
| 2026-05-05 14:17 | 52.60033 | -2.26232 | 27476 ft | 417 kts | 153° |
| 2026-05-05 14:18 | 52.57479 | -2.23931 | 27936 ft | 420 kts | 153° |
| 2026-05-05 14:18 | 52.54904 | -2.21615 | 28391 ft | 422 kts | 153° |
| 2026-05-05 14:18 | 52.52323 | -2.19295 | 28824 ft | 424 kts | 153° |
| 2026-05-05 14:18 | 52.49723 | -2.16961 | 29264 ft | 427 kts | 153° |
| 2026-05-05 14:19 | 52.47110 | -2.14619 | 29683 ft | 429 kts | 153° |
| 2026-05-05 14:19 | 52.44485 | -2.12268 | 30090 ft | 432 kts | 153° |
| 2026-05-05 14:19 | 52.41836 | -2.09901 | 30415 ft | 434 kts | 153° |
| 2026-05-05 14:19 | 52.39179 | -2.07529 | 30759 ft | 436 kts | 153° |
| 2026-05-05 14:20 | 52.36498 | -2.05139 | 31096 ft | 438 kts | 153° |
| 2026-05-05 14:20 | 52.33845 | -2.02776 | 31427 ft | 441 kts | 153° |
| 2026-05-05 14:20 | 52.31143 | -2.00374 | 31751 ft | 443 kts | 153° |
| 2026-05-05 14:20 | 52.28426 | -1.97963 | 32074 ft | 445 kts | 153° |
| 2026-05-05 14:21 | 52.25697 | -1.95543 | 32389 ft | 448 kts | 153° |
| 2026-05-05 14:21 | 52.22949 | -1.93110 | 32717 ft | 450 kts | 153° |
| 2026-05-05 14:21 | 52.20188 | -1.90670 | 33062 ft | 451 kts | 153° |
| 2026-05-05 14:21 | 52.17430 | -1.88235 | 33509 ft | 450 kts | 153° |
| 2026-05-05 14:22 | 52.14676 | -1.85808 | 33947 ft | 450 kts | 153° |
| 2026-05-05 14:22 | 52.11927 | -1.83388 | 34304 ft | 449 kts | 153° |
| 2026-05-05 14:22 | 52.09177 | -1.80970 | 34628 ft | 449 kts | 153° |
| 2026-05-05 14:22 | 52.06420 | -1.78550 | 34955 ft | 449 kts | 153° |
| 2026-05-05 14:23 | 52.03700 | -1.76166 | 35281 ft | 449 kts | 153° |
| 2026-05-05 14:23 | 52.00912 | -1.73726 | 35603 ft | 450 kts | 153° |
| 2026-05-05 14:23 | 51.98192 | -1.71348 | 35920 ft | 450 kts | 153° |
| 2026-05-05 14:23 | 51.95437 | -1.68943 | 36221 ft | 450 kts | 153° |
| 2026-05-05 14:24 | 51.92677 | -1.66538 | 36533 ft | 450 kts | 153° |
| 2026-05-05 14:24 | 51.89921 | -1.64140 | 36830 ft | 450 kts | 153° |
| 2026-05-05 14:24 | 51.87162 | -1.61742 | 37110 ft | 450 kts | 153° |
| 2026-05-05 14:24 | 51.84393 | -1.59338 | 37395 ft | 451 kts | 153° |
| 2026-05-05 14:25 | 51.81628 | -1.56941 | 37667 ft | 451 kts | 153° |
| 2026-05-05 14:25 | 51.78859 | -1.54545 | 37919 ft | 451 kts | 153° |
| 2026-05-05 14:25 | 51.76083 | -1.52147 | 38165 ft | 452 kts | 153° |
| 2026-05-05 14:25 | 51.73309 | -1.49752 | 38411 ft | 453 kts | 153° |
| 2026-05-05 14:26 | 51.70561 | -1.47383 | 38626 ft | 453 kts | 153° |
| 2026-05-05 14:26 | 51.67771 | -1.44982 | 38806 ft | 454 kts | 153° |
| 2026-05-05 14:26 | 51.64986 | -1.42588 | 38935 ft | 455 kts | 153° |
| 2026-05-05 14:26 | 51.62185 | -1.40184 | 38961 ft | 458 kts | 153° |
| 2026-05-05 14:27 | 51.56541 | -1.35351 | 38963 ft | 458 kts | 153° |
| 2026-05-05 14:27 | 51.50907 | -1.30540 | 38961 ft | 457 kts | 153° |
| 2026-05-05 14:28 | 51.45319 | -1.25780 | 38958 ft | 457 kts | 153° |
| 2026-05-05 14:28 | 51.39706 | -1.21014 | 38960 ft | 456 kts | 153° |
| 2026-05-05 14:29 | 51.34099 | -1.16266 | 38960 ft | 455 kts | 153° |
| 2026-05-05 14:29 | 51.28495 | -1.11533 | 38969 ft | 455 kts | 153° |
| 2026-05-05 14:30 | 51.22897 | -1.06818 | 38965 ft | 454 kts | 153° |
| 2026-05-05 14:30 | 51.17350 | -1.02159 | 38961 ft | 453 kts | 153° |
| 2026-05-05 14:31 | 51.11770 | -0.97486 | 38962 ft | 453 kts | 153° |
| 2026-05-05 14:31 | 51.06191 | -0.92826 | 38959 ft | 452 kts | 153° |
| 2026-05-05 14:32 | 51.00610 | -0.88177 | 38955 ft | 452 kts | 153° |
| 2026-05-05 14:32 | 50.95044 | -0.83554 | 38943 ft | 451 kts | 153° |
| 2026-05-05 14:33 | 50.89477 | -0.78941 | 38942 ft | 451 kts | 153° |
| 2026-05-05 14:33 | 50.84040 | -0.74010 | 38935 ft | 451 kts | 146° |
| 2026-05-05 14:34 | 50.78830 | -0.68597 | 38934 ft | 452 kts | 148° |
| 2026-05-05 14:34 | 50.73534 | -0.63220 | 38932 ft | 452 kts | 148° |
| 2026-05-05 14:35 | 50.68228 | -0.57862 | 38934 ft | 453 kts | 148° |
| 2026-05-05 14:35 | 50.62904 | -0.52500 | 38938 ft | 454 kts | 148° |
| 2026-05-05 14:36 | 50.57572 | -0.47145 | 38935 ft | 455 kts | 148° |
| 2026-05-05 14:36 | 50.52231 | -0.41797 | 38937 ft | 455 kts | 148° |
| 2026-05-05 14:37 | 50.46886 | -0.36459 | 38931 ft | 454 kts | 148° |
| 2026-05-05 14:37 | 50.41585 | -0.31180 | 38933 ft | 454 kts | 148° |
| 2026-05-05 14:38 | 50.36243 | -0.25873 | 38928 ft | 454 kts | 148° |
| 2026-05-05 14:38 | 50.30901 | -0.20580 | 38936 ft | 454 kts | 148° |
| 2026-05-05 14:39 | 50.25564 | -0.15307 | 38930 ft | 453 kts | 149° |
| 2026-05-05 14:39 | 50.20229 | -0.10049 | 38922 ft | 453 kts | 149° |
| 2026-05-05 14:40 | 50.14905 | -0.04816 | 38920 ft | 452 kts | 149° |
| 2026-05-05 14:40 | 50.09450 | -0.00005 | 38902 ft | 448 kts | 163° |
| 2026-05-05 14:41 | 50.03472 | 0.02509 | 38922 ft | 448 kts | 166° |
| 2026-05-05 14:41 | 49.97442 | 0.04947 | 38916 ft | 448 kts | 166° |
| 2026-05-05 14:42 | 49.91412 | 0.07323 | 38913 ft | 447 kts | 166° |
| 2026-05-05 14:42 | 49.85367 | 0.09691 | 38910 ft | 447 kts | 167° |
| 2026-05-05 14:43 | 49.79337 | 0.12048 | 38913 ft | 446 kts | 166° |
| 2026-05-05 14:43 | 49.73317 | 0.14396 | 38912 ft | 446 kts | 167° |
| 2026-05-05 14:44 | 49.67298 | 0.16767 | 38917 ft | 446 kts | 166° |
| 2026-05-05 14:44 | 49.61295 | 0.19193 | 38916 ft | 445 kts | 166° |
| 2026-05-05 14:45 | 49.55333 | 0.21588 | 38914 ft | 445 kts | 166° |
| 2026-05-05 14:45 | 49.49328 | 0.23994 | 38915 ft | 446 kts | 166° |
| 2026-05-05 14:46 | 49.43315 | 0.26398 | 38880 ft | 446 kts | 166° |
| 2026-05-05 14:46 | 49.37302 | 0.28795 | 38888 ft | 446 kts | 166° |
| 2026-05-05 14:47 | 49.31286 | 0.31207 | 38888 ft | 447 kts | 165° |
| 2026-05-05 14:47 | 49.25287 | 0.33750 | 38877 ft | 447 kts | 165° |
| 2026-05-05 14:48 | 49.19284 | 0.36276 | 38886 ft | 447 kts | 165° |
| 2026-05-05 14:48 | 49.14293 | 0.38370 | 38885 ft | 448 kts | 165° |
| 2026-05-05 14:49 | 49.08284 | 0.40885 | 38884 ft | 448 kts | 165° |
| 2026-05-05 14:49 | 49.02269 | 0.43396 | 38869 ft | 448 kts | 165° |
| 2026-05-05 14:50 | 48.96250 | 0.45903 | 38873 ft | 448 kts | 165° |
| 2026-05-05 14:50 | 48.90227 | 0.48405 | 38888 ft | 449 kts | 165° |
| 2026-05-05 14:51 | 48.84210 | 0.50898 | 38869 ft | 448 kts | 165° |
| 2026-05-05 14:51 | 48.78217 | 0.53342 | 38877 ft | 449 kts | 166° |
| 2026-05-05 14:52 | 48.72162 | 0.55716 | 38870 ft | 449 kts | 166° |
| 2026-05-05 14:52 | 48.66101 | 0.58098 | 38865 ft | 450 kts | 166° |
| 2026-05-05 14:53 | 48.60037 | 0.60475 | 38865 ft | 450 kts | 166° |
| 2026-05-05 14:53 | 48.53978 | 0.62836 | 38863 ft | 450 kts | 167° |
| 2026-05-05 14:54 | 48.47799 | 0.64012 | 38853 ft | 450 kts | 173° |
| 2026-05-05 14:54 | 48.41587 | 0.65253 | 38855 ft | 451 kts | 172° |
| 2026-05-05 14:55 | 48.35365 | 0.66539 | 38854 ft | 451 kts | 172° |
| 2026-05-05 14:55 | 48.29140 | 0.67829 | 38846 ft | 451 kts | 172° |
| 2026-05-05 14:56 | 48.22915 | 0.69115 | 38843 ft | 452 kts | 172° |
| 2026-05-05 14:56 | 48.16682 | 0.70401 | 38850 ft | 452 kts | 172° |
| 2026-05-05 14:57 | 48.10441 | 0.71685 | 38829 ft | 453 kts | 172° |
| 2026-05-05 14:57 | 48.04201 | 0.72965 | 38816 ft | 453 kts | 173° |
| 2026-05-05 14:58 | 47.97978 | 0.74238 | 38820 ft | 455 kts | 173° |
| 2026-05-05 14:58 | 47.91704 | 0.75519 | 38818 ft | 455 kts | 173° |
| 2026-05-05 14:59 | 47.85431 | 0.76797 | 38820 ft | 455 kts | 173° |
| 2026-05-05 14:59 | 47.79159 | 0.78071 | 38823 ft | 455 kts | 173° |
| 2026-05-05 15:00 | 47.73941 | 0.79129 | 38821 ft | 455 kts | 173° |
| 2026-05-05 15:00 | 47.66606 | 0.80612 | 38830 ft | 454 kts | 173° |
| 2026-05-05 15:01 | 47.60343 | 0.81876 | 38828 ft | 453 kts | 173° |
| 2026-05-05 15:01 | 47.54085 | 0.83135 | 38838 ft | 453 kts | 173° |
| 2026-05-05 15:02 | 47.47890 | 0.84378 | 38831 ft | 453 kts | 173° |
| 2026-05-05 15:02 | 47.41642 | 0.85629 | 38841 ft | 453 kts | 173° |
| 2026-05-05 15:03 | 47.35392 | 0.86878 | 38846 ft | 453 kts | 173° |
| 2026-05-05 15:03 | 47.29145 | 0.88123 | 38837 ft | 452 kts | 173° |
| 2026-05-05 15:04 | 47.22915 | 0.89362 | 38845 ft | 452 kts | 173° |
| 2026-05-05 15:04 | 47.16680 | 0.90599 | 38843 ft | 452 kts | 173° |
| 2026-05-05 15:05 | 47.07363 | 0.92441 | 38844 ft | 452 kts | 173° |
| 2026-05-05 15:06 | 47.01105 | 0.93675 | 38842 ft | 452 kts | 173° |
| 2026-05-05 15:06 | 46.94873 | 0.94902 | 38843 ft | 452 kts | 173° |
| 2026-05-05 15:07 | 46.88629 | 0.96127 | 38841 ft | 452 kts | 173° |
| 2026-05-05 15:07 | 46.82437 | 0.97339 | 38845 ft | 452 kts | 174° |
| 2026-05-05 15:08 | 46.76203 | 0.98557 | 38847 ft | 451 kts | 174° |
| 2026-05-05 15:08 | 46.69983 | 0.99769 | 38845 ft | 451 kts | 173° |
| 2026-05-05 15:09 | 46.63763 | 1.00979 | 38848 ft | 450 kts | 174° |
| 2026-05-05 15:09 | 46.57581 | 1.02178 | 38856 ft | 450 kts | 174° |
| 2026-05-05 15:10 | 46.51382 | 1.03469 | 38854 ft | 450 kts | 168° |
| 2026-05-05 15:10 | 46.45293 | 1.05649 | 38867 ft | 451 kts | 168° |
| 2026-05-05 15:11 | 46.39174 | 1.07703 | 38869 ft | 451 kts | 168° |
| 2026-05-05 15:11 | 46.33058 | 1.09730 | 38876 ft | 451 kts | 168° |
| 2026-05-05 15:12 | 46.26939 | 1.11753 | 38886 ft | 451 kts | 168° |
| 2026-05-05 15:12 | 46.20815 | 1.13772 | 38881 ft | 451 kts | 169° |
| 2026-05-05 15:13 | 46.14738 | 1.15771 | 38902 ft | 451 kts | 169° |
| 2026-05-05 15:13 | 46.08610 | 1.17783 | 38906 ft | 451 kts | 169° |
| 2026-05-05 15:14 | 46.02485 | 1.19789 | 38913 ft | 451 kts | 169° |
| 2026-05-05 15:14 | 45.96363 | 1.21789 | 38903 ft | 451 kts | 169° |
| 2026-05-05 15:15 | 45.90241 | 1.23785 | 38912 ft | 451 kts | 169° |
| 2026-05-05 15:15 | 45.84120 | 1.25776 | 38911 ft | 451 kts | 169° |
| 2026-05-05 15:16 | 45.78053 | 1.27745 | 38909 ft | 451 kts | 169° |
| 2026-05-05 15:16 | 45.71929 | 1.29728 | 38912 ft | 451 kts | 169° |
| 2026-05-05 15:17 | 45.65793 | 1.31711 | 38912 ft | 452 kts | 169° |
| 2026-05-05 15:17 | 45.59658 | 1.33688 | 38924 ft | 452 kts | 169° |
| 2026-05-05 15:18 | 45.53510 | 1.35666 | 38927 ft | 453 kts | 169° |
| 2026-05-05 15:18 | 45.47359 | 1.37644 | 38932 ft | 453 kts | 169° |
| 2026-05-05 15:19 | 45.41208 | 1.39627 | 38932 ft | 453 kts | 169° |
| 2026-05-05 15:19 | 45.35052 | 1.41608 | 38934 ft | 453 kts | 169° |
| 2026-05-05 15:20 | 45.28911 | 1.43579 | 38943 ft | 452 kts | 170° |
| 2026-05-05 15:20 | 45.22771 | 1.45546 | 38933 ft | 451 kts | 170° |
| 2026-05-05 15:21 | 45.16694 | 1.47488 | 38938 ft | 450 kts | 170° |
| 2026-05-05 15:21 | 45.10580 | 1.49438 | 38935 ft | 449 kts | 170° |
| 2026-05-05 15:22 | 45.04468 | 1.51383 | 38939 ft | 449 kts | 170° |
| 2026-05-05 15:22 | 44.98373 | 1.53318 | 38937 ft | 448 kts | 170° |
| 2026-05-05 15:23 | 44.92289 | 1.55246 | 38939 ft | 448 kts | 170° |
| 2026-05-05 15:23 | 44.86201 | 1.57170 | 38934 ft | 448 kts | 170° |
| 2026-05-05 15:24 | 44.80110 | 1.59091 | 38930 ft | 449 kts | 170° |
| 2026-05-05 15:24 | 44.74008 | 1.61012 | 38928 ft | 449 kts | 170° |
| 2026-05-05 15:25 | 44.67911 | 1.62927 | 38927 ft | 449 kts | 170° |
| 2026-05-05 15:25 | 44.61805 | 1.64841 | 38930 ft | 449 kts | 171° |
| 2026-05-05 15:26 | 44.55744 | 1.66736 | 38923 ft | 449 kts | 171° |
| 2026-05-05 15:26 | 44.49628 | 1.68645 | 38927 ft | 449 kts | 171° |
| 2026-05-05 15:27 | 44.43518 | 1.70547 | 38926 ft | 449 kts | 171° |
| 2026-05-05 15:27 | 44.37411 | 1.72446 | 38927 ft | 450 kts | 171° |
| 2026-05-05 15:28 | 44.31288 | 1.74345 | 38921 ft | 450 kts | 171° |
| 2026-05-05 15:28 | 44.25136 | 1.75763 | 38926 ft | 448 kts | 174° |
| 2026-05-05 15:29 | 44.19015 | 1.77125 | 38921 ft | 448 kts | 174° |
| 2026-05-05 15:29 | 44.12853 | 1.78511 | 38921 ft | 448 kts | 174° |
| 2026-05-05 15:30 | 44.06687 | 1.79896 | 38923 ft | 448 kts | 174° |
| 2026-05-05 15:30 | 44.00542 | 1.81274 | 38918 ft | 447 kts | 174° |
| 2026-05-05 15:31 | 43.94390 | 1.82453 | 38922 ft | 442 kts | 181° |
| 2026-05-05 15:31 | 43.88232 | 1.82957 | 38920 ft | 443 kts | 180° |
| 2026-05-05 15:32 | 43.82112 | 1.83558 | 38927 ft | 443 kts | 180° |
| 2026-05-05 15:32 | 43.75962 | 1.84174 | 38931 ft | 443 kts | 180° |
| 2026-05-05 15:33 | 43.69815 | 1.84790 | 38930 ft | 443 kts | 180° |
| 2026-05-05 15:33 | 43.63668 | 1.85404 | 38935 ft | 442 kts | 180° |
| 2026-05-05 15:34 | 43.57523 | 1.86017 | 38923 ft | 442 kts | 180° |
| 2026-05-05 15:34 | 43.51395 | 1.86627 | 38924 ft | 442 kts | 180° |
| 2026-05-05 15:35 | 43.45255 | 1.87237 | 38924 ft | 441 kts | 180° |
| 2026-05-05 15:35 | 43.39127 | 1.87845 | 38918 ft | 441 kts | 180° |
| 2026-05-05 15:36 | 43.34049 | 1.88342 | 38921 ft | 440 kts | 180° |
| 2026-05-05 15:36 | 43.26968 | 1.89019 | 38920 ft | 435 kts | 181° |
| 2026-05-05 15:37 | 43.21911 | 1.89502 | 38924 ft | 435 kts | 181° |
| 2026-05-05 15:37 | 43.15937 | 1.90072 | 38323 ft | 431 kts | 181° |
| 2026-05-05 15:37 | 43.12934 | 1.90358 | 37454 ft | 434 kts | 181° |
| 2026-05-05 15:38 | 43.09928 | 1.90643 | 36703 ft | 434 kts | 181° |
| 2026-05-05 15:38 | 43.06918 | 1.90929 | 35998 ft | 432 kts | 181° |
| 2026-05-05 15:38 | 43.03925 | 1.91214 | 35409 ft | 428 kts | 181° |
| 2026-05-05 15:38 | 43.00955 | 1.91495 | 34728 ft | 426 kts | 182° |
| 2026-05-05 15:39 | 42.98003 | 1.91775 | 34116 ft | 423 kts | 182° |
| 2026-05-05 15:39 | 42.95088 | 1.92052 | 33511 ft | 418 kts | 182° |
| 2026-05-05 15:39 | 42.92199 | 1.92325 | 32860 ft | 414 kts | 182° |
| 2026-05-05 15:39 | 42.89350 | 1.92595 | 32318 ft | 408 kts | 182° |
| 2026-05-05 15:40 | 42.86534 | 1.92861 | 31824 ft | 402 kts | 183° |
| 2026-05-05 15:40 | 42.83770 | 1.93122 | 31302 ft | 396 kts | 183° |
| 2026-05-05 15:40 | 42.81037 | 1.93378 | 30781 ft | 391 kts | 183° |
| 2026-05-05 15:40 | 42.78343 | 1.93644 | 30303 ft | 387 kts | 181° |
| 2026-05-05 15:41 | 42.75723 | 1.94082 | 30011 ft | 379 kts | 181° |
| 2026-05-05 15:41 | 42.73105 | 1.94509 | 29667 ft | 370 kts | 181° |
| 2026-05-05 15:41 | 42.70593 | 1.94908 | 29154 ft | 367 kts | 181° |
| 2026-05-05 15:41 | 42.68069 | 1.95305 | 28636 ft | 364 kts | 181° |
| 2026-05-05 15:42 | 42.65561 | 1.95696 | 28098 ft | 360 kts | 181° |
| 2026-05-05 15:42 | 42.63090 | 1.96083 | 27638 ft | 355 kts | 181° |
| 2026-05-05 15:42 | 42.60645 | 1.96465 | 27172 ft | 352 kts | 181° |
| 2026-05-05 15:42 | 42.58211 | 1.96844 | 26681 ft | 351 kts | 180° |
| 2026-05-05 15:43 | 42.55793 | 1.97221 | 26213 ft | 349 kts | 180° |
| 2026-05-05 15:43 | 42.53387 | 1.97596 | 25765 ft | 347 kts | 180° |
| 2026-05-05 15:43 | 42.50992 | 1.97969 | 25315 ft | 346 kts | 180° |
| 2026-05-05 15:43 | 42.48610 | 1.98340 | 24871 ft | 345 kts | 180° |
| 2026-05-05 15:44 | 42.46229 | 1.98709 | 24436 ft | 343 kts | 180° |
| 2026-05-05 15:44 | 42.43865 | 1.99077 | 24020 ft | 341 kts | 180° |
| 2026-05-05 15:44 | 42.41514 | 1.99441 | 23602 ft | 340 kts | 180° |
| 2026-05-05 15:44 | 42.39168 | 1.99805 | 23136 ft | 339 kts | 180° |
| 2026-05-05 15:45 | 42.36832 | 2.00167 | 22678 ft | 337 kts | 180° |
| 2026-05-05 15:45 | 42.34515 | 2.00526 | 22284 ft | 333 kts | 180° |
| 2026-05-05 15:45 | 42.32248 | 2.00877 | 21897 ft | 330 kts | 180° |
| 2026-05-05 15:45 | 42.29945 | 2.01233 | 21511 ft | 327 kts | 179° |
| 2026-05-05 15:46 | 42.27702 | 2.01579 | 21142 ft | 331 kts | 179° |
| 2026-05-05 15:46 | 42.25392 | 2.01936 | 20732 ft | 335 kts | 179° |
| 2026-05-05 15:46 | 42.23069 | 2.02295 | 20370 ft | 336 kts | 179° |
| 2026-05-05 15:46 | 42.20747 | 2.02652 | 19998 ft | 335 kts | 179° |
| 2026-05-05 15:47 | 42.18449 | 2.02579 | 19584 ft | 325 kts | 197° |
| 2026-05-05 15:47 | 42.16405 | 2.01428 | 19278 ft | 318 kts | 214° |
| 2026-05-05 15:47 | 42.14656 | 1.99598 | 18959 ft | 319 kts | 220° |
| 2026-05-05 15:47 | 42.12968 | 1.97656 | 18631 ft | 319 kts | 222° |
| 2026-05-05 15:48 | 42.11307 | 1.95662 | 18299 ft | 320 kts | 223° |
| 2026-05-05 15:48 | 42.09667 | 1.93649 | 17926 ft | 319 kts | 223° |
| 2026-05-05 15:48 | 42.08040 | 1.91628 | 17568 ft | 318 kts | 223° |
| 2026-05-05 15:48 | 42.06425 | 1.89606 | 17222 ft | 317 kts | 223° |
| 2026-05-05 15:49 | 42.04834 | 1.87607 | 16900 ft | 316 kts | 223° |
| 2026-05-05 15:49 | 42.03231 | 1.85589 | 16561 ft | 315 kts | 224° |
| 2026-05-05 15:49 | 42.01630 | 1.83571 | 16223 ft | 314 kts | 224° |
| 2026-05-05 15:49 | 42.00036 | 1.81564 | 15934 ft | 313 kts | 224° |
| 2026-05-05 15:50 | 41.98444 | 1.79560 | 15647 ft | 315 kts | 224° |
| 2026-05-05 15:50 | 41.96846 | 1.77549 | 15250 ft | 313 kts | 223° |
| 2026-05-05 15:50 | 41.95164 | 1.75723 | 14857 ft | 312 kts | 215° |
| 2026-05-05 15:50 | 41.93384 | 1.74083 | 14517 ft | 309 kts | 216° |
| 2026-05-05 15:51 | 41.91622 | 1.72425 | 14208 ft | 310 kts | 216° |
| 2026-05-05 15:51 | 41.89860 | 1.70751 | 13889 ft | 310 kts | 216° |
| 2026-05-05 15:51 | 41.88102 | 1.69071 | 13556 ft | 310 kts | 216° |
| 2026-05-05 15:51 | 41.86348 | 1.67388 | 13061 ft | 311 kts | 216° |
| 2026-05-05 15:52 | 41.84571 | 1.65681 | 12538 ft | 313 kts | 216° |
| 2026-05-05 15:52 | 41.82812 | 1.63993 | 12131 ft | 310 kts | 217° |
| 2026-05-05 15:52 | 41.81064 | 1.62314 | 11778 ft | 307 kts | 217° |
| 2026-05-05 15:52 | 41.79337 | 1.60658 | 11417 ft | 304 kts | 217° |
| 2026-05-05 15:53 | 41.77634 | 1.59026 | 11218 ft | 295 kts | 217° |
| 2026-05-05 15:53 | 41.76014 | 1.57473 | 11077 ft | 286 kts | 217° |
| 2026-05-05 15:53 | 41.74425 | 1.55952 | 10956 ft | 275 kts | 216° |
| 2026-05-05 15:53 | 41.72701 | 1.54862 | 10748 ft | 279 kts | 195° |
| 2026-05-05 15:54 | 41.70786 | 1.54344 | 10535 ft | 282 kts | 194° |
| 2026-05-05 15:54 | 41.68872 | 1.53828 | 10302 ft | 279 kts | 194° |
| 2026-05-05 15:54 | 41.66983 | 1.53332 | 10065 ft | 275 kts | 193° |
| 2026-05-05 15:54 | 41.65114 | 1.52847 | 9829 ft | 271 kts | 193° |
| 2026-05-05 15:55 | 41.63276 | 1.52375 | 9578 ft | 268 kts | 193° |
| 2026-05-05 15:55 | 41.61450 | 1.51908 | 9318 ft | 266 kts | 193° |
| 2026-05-05 15:55 | 41.59630 | 1.51444 | 9085 ft | 267 kts | 193° |
| 2026-05-05 15:55 | 41.57794 | 1.50977 | 8854 ft | 267 kts | 193° |
| 2026-05-05 15:56 | 41.55972 | 1.50514 | 8619 ft | 267 kts | 193° |
| 2026-05-05 15:56 | 41.54114 | 1.50336 | 8356 ft | 270 kts | 175° |
| 2026-05-05 15:56 | 41.52280 | 1.50743 | 8126 ft | 271 kts | 173° |
| 2026-05-05 15:56 | 41.50425 | 1.51153 | 7915 ft | 270 kts | 173° |
| 2026-05-05 15:57 | 41.48567 | 1.51566 | 7674 ft | 271 kts | 173° |
| 2026-05-05 15:57 | 41.46712 | 1.51980 | 7436 ft | 270 kts | 173° |
| 2026-05-05 15:57 | 41.44859 | 1.52396 | 7205 ft | 270 kts | 173° |
| 2026-05-05 15:57 | 41.43008 | 1.52812 | 6970 ft | 269 kts | 173° |
| 2026-05-05 15:58 | 41.41172 | 1.53224 | 6745 ft | 266 kts | 173° |
| 2026-05-05 15:58 | 41.39362 | 1.53629 | 6504 ft | 262 kts | 173° |
| 2026-05-05 15:58 | 41.37576 | 1.54028 | 6265 ft | 258 kts | 173° |
| 2026-05-05 15:58 | 41.35827 | 1.54421 | 6071 ft | 251 kts | 173° |
| 2026-05-05 15:59 | 41.34144 | 1.54439 | 6009 ft | 237 kts | 198° |
| 2026-05-05 15:59 | 41.32638 | 1.53597 | 5921 ft | 236 kts | 207° |
| 2026-05-05 15:59 | 41.31129 | 1.52674 | 5565 ft | 240 kts | 207° |
| 2026-05-05 15:59 | 41.29644 | 1.51755 | 5242 ft | 242 kts | 207° |
| 2026-05-05 16:00 | 41.28121 | 1.50806 | 4978 ft | 241 kts | 207° |
| 2026-05-05 16:00 | 41.26604 | 1.49856 | 4713 ft | 239 kts | 207° |
| 2026-05-05 16:00 | 41.25116 | 1.48914 | 4482 ft | 234 kts | 210° |
| 2026-05-05 16:00 | 41.23903 | 1.47558 | 4315 ft | 227 kts | 237° |
| 2026-05-05 16:01 | 41.23190 | 1.45729 | 4214 ft | 220 kts | 249° |
| 2026-05-05 16:01 | 41.22633 | 1.43855 | 4122 ft | 217 kts | 250° |
| 2026-05-05 16:01 | 41.22093 | 1.41997 | 4020 ft | 213 kts | 250° |
| 2026-05-05 16:01 | 41.21572 | 1.40198 | 3956 ft | 203 kts | 250° |
| 2026-05-05 16:02 | 41.21071 | 1.38477 | 3856 ft | 197 kts | 250° |
| 2026-05-05 16:02 | 41.20576 | 1.36780 | 3551 ft | 196 kts | 250° |
| 2026-05-05 16:02 | 41.20087 | 1.35098 | 3231 ft | 195 kts | 250° |
| 2026-05-05 16:02 | 41.19604 | 1.33438 | 2965 ft | 191 kts | 250° |
| 2026-05-05 16:03 | 41.19126 | 1.31795 | 2666 ft | 190 kts | 250° |
| 2026-05-05 16:03 | 41.18651 | 1.30161 | 2366 ft | 187 kts | 250° |
| 2026-05-05 16:03 | 41.18207 | 1.28635 | 2079 ft | 168 kts | 250° |
| 2026-05-05 16:03 | 41.17811 | 1.27272 | 1852 ft | 149 kts | 250° |
| 2026-05-05 16:04 | 41.17456 | 1.26046 | 1562 ft | 139 kts | 250° |
| 2026-05-05 16:04 | 41.17100 | 1.24845 | 1335 ft | 141 kts | 248° |
| 2026-05-05 16:04 | 41.16742 | 1.23639 | 1085 ft | 137 kts | 248° |
| 2026-05-05 16:04 | 41.16407 | 1.22431 | 927 ft | 140 kts | 248° |
| 2026-05-05 16:05 | 41.16067 | 1.21224 | 749 ft | 142 kts | 246° |
| 2026-05-05 16:05 | 41.15709 | 1.20039 | 574 ft | 135 kts | 248° |
| 2026-05-05 16:05 | 41.15357 | 1.18827 | 379 ft | 143 kts | 248° |
| 2026-05-05 16:05 | 41.15006 | 1.17618 | 247 ft | 133 kts | 248° |
| 2026-05-05 16:06 | 41.14731 | 1.16686 | 246 ft | 74 kts | 249° |
| 2026-05-05 16:06 | 41.14578 | 1.16161 | 246 ft | 44 kts | 249° |
| 2026-05-05 16:06 | 41.14536 | 1.15930 | 246 ft | 16 kts | 299° |
| 2026-05-05 16:06 | 41.14630 | 1.15867 | 246 ft | 17 kts | 338° |
| 2026-05-05 16:07 | 41.14647 | 1.15794 | 246 ft | 8 kts | 248° |
| 2026-05-05 16:07 | 41.14624 | 1.15717 | 246 ft | 9 kts | 248° |
| 2026-05-05 16:07 | 41.14615 | 1.15688 | 246 ft | 2 kts | 249° |
| 2026-05-05 16:07 | 41.14612 | 1.15665 | 246 ft | 2 kts | 282° |
| 2026-05-05 16:08 | 41.14622 | 1.15653 | 246 ft | 3 kts | 322° |
| 2026-05-05 16:08 | 41.14649 | 1.15638 | 246 ft | 6 kts | 339° |
| 2026-05-05 16:08 | 41.14669 | 1.15628 | 246 ft | 2 kts | 339° |
| 2026-05-05 16:08 | 41.14674 | 1.15625 | 246 ft | 0 kts | 339° |